Time;durP1;ratioP1;P1;durP2;ratioP2;P2;SDS_P1;SDS_P2;PMS_P1;PMS_P2;Temp;Humidity;BMP_temperature;BMP_pressure;BME280_temperature;BME280_humidity;BME280_pressure;Samples;Min_cycle;Max_cycle;Signal;HPM_P1;HPM_P2
2022/07/04 00:01:02;;;;;;;3.33;1.65;;;16.30;99.90;;;;;;5132653;28;20155;-55
2022/07/04 00:03:28;;;;;;;4.20;1.60;;;17.50;99.90;;;;;;5132322;28;20160;-55
2022/07/04 00:05:54;;;;;;;1.80;1.23;;;17.30;99.90;;;;;;5132843;28;20178;-55
2022/07/04 00:08:19;;;;;;;3.97;1.60;;;17.20;99.90;;;;;;5132507;28;20208;-55
2022/07/04 00:10:45;;;;;;;2.20;1.55;;;17.20;99.90;;;;;;5132568;28;20268;-55
2022/07/04 00:13:11;;;;;;;1.40;1.05;;;17.30;99.90;;;;;;5132796;28;20579;-55
2022/07/04 00:15:36;;;;;;;3.25;1.42;;;17.30;99.90;;;;;;5132424;28;20177;-54
2022/07/04 00:18:02;;;;;;;2.85;1.30;;;17.40;99.90;;;;;;5132514;28;20188;-54
2022/07/04 00:20:28;;;;;;;2.70;1.30;;;17.40;99.90;;;;;;5132848;28;20165;-54
2022/07/04 00:22:54;;;;;;;2.08;1.10;;;17.40;99.90;;;;;;5132808;28;20247;-54
2022/07/04 00:25:20;;;;;;;2.83;1.33;;;17.40;99.90;;;;;;5132288;28;20625;-54
2022/07/04 00:27:45;;;;;;;1.83;1.20;;;17.50;99.90;;;;;;5132346;28;20239;-54
2022/07/04 00:30:11;;;;;;;4.95;1.02;;;17.50;99.90;;;;;;5132599;28;20164;-54
2022/07/04 00:32:37;;;;;;;5.28;1.40;;;17.50;99.90;;;;;;5132389;28;20172;-54
2022/07/04 00:35:02;;;;;;;4.97;1.40;;;17.40;99.90;;;;;;5132334;28;20215;-53
2022/07/04 00:37:28;;;;;;;3.63;1.30;;;17.40;99.90;;;;;;5132786;28;20168;-54
2022/07/04 00:39:55;;;;;;;3.45;1.27;;;17.40;99.90;;;;;;5134376;27;20171;-55
2022/07/04 00:42:21;;;;;;;2.47;1.15;;;17.40;99.90;;;;;;5136303;27;20172;-55
2022/07/04 00:44:46;;;;;;;2.85;1.42;;;17.40;99.90;;;;;;5136077;27;20160;-54
2022/07/04 00:47:12;;;;;;;2.70;1.30;;;17.40;99.90;;;;;;5135867;27;20687;-54
2022/07/04 00:49:37;;;;;;;2.17;1.20;;;17.30;99.90;;;;;;5135940;27;20175;-54
2022/07/04 00:52:04;;;;;;;4.03;1.40;;;17.40;99.90;;;;;;5136142;27;20160;-54
2022/07/04 00:54:31;;;;;;;1.70;1.40;;;17.30;99.90;;;;;;5136076;27;20530;-55
2022/07/04 00:56:57;;;;;;;3.88;1.35;;;17.20;99.90;;;;;;5136089;27;20644;-54
2022/07/04 00:59:23;;;;;;;2.45;1.50;;;17.10;99.90;;;;;;5117696;27;20172;-54
2022/07/04 01:01:50;;;;;;;3.50;2.25;;;17.20;99.90;;;;;;5135647;27;20171;-55
2022/07/04 01:04:16;;;;;;;2.92;1.50;;;17.20;99.90;;;;;;5135624;27;20599;-54
2022/07/04 01:06:43;;;;;;;6.40;1.25;;;17.10;99.90;;;;;;5135534;27;20159;-54
2022/07/04 01:09:08;;;;;;;4.47;1.52;;;17.10;99.90;;;;;;5135452;27;20199;-55
2022/07/04 01:11:34;;;;;;;7.13;1.70;;;17.10;99.90;;;;;;5135785;27;20175;-55
2022/07/04 01:14:00;;;;;;;3.15;1.40;;;17.10;99.90;;;;;;5135496;27;20167;-54
2022/07/04 01:16:26;;;;;;;3.63;1.35;;;17.10;99.90;;;;;;5135710;27;20168;-55
2022/07/04 01:18:53;;;;;;;9.43;1.80;;;17.00;99.90;;;;;;5135315;27;20243;-54
2022/07/04 01:21:19;;;;;;;4.82;1.90;;;17.00;99.90;;;;;;5135322;27;20196;-53
2022/07/04 01:23:45;;;;;;;4.15;1.33;;;16.90;99.90;;;;;;5135427;27;20637;-55
2022/07/04 01:26:11;;;;;;;4.05;1.27;;;16.90;99.90;;;;;;5135107;27;20244;-53
2022/07/04 01:28:37;;;;;;;3.30;1.45;;;16.80;99.90;;;;;;5135454;27;20306;-54
2022/07/04 01:31:03;;;;;;;2.15;1.10;;;16.80;99.90;;;;;;5135070;27;20523;-54
2022/07/04 01:33:29;;;;;;;3.47;1.35;;;16.80;99.90;;;;;;5135073;27;20627;-53
2022/07/04 01:35:55;;;;;;;2.83;1.20;;;16.80;99.90;;;;;;5135623;27;20192;-53
2022/07/04 01:38:21;;;;;;;5.90;1.70;;;16.80;99.90;;;;;;5134989;27;20171;-54
2022/07/04 01:40:47;;;;;;;4.70;1.55;;;16.70;99.90;;;;;;5135235;27;20179;-54
2022/07/04 01:43:12;;;;;;;2.65;1.52;;;16.70;99.90;;;;;;5134913;27;20164;-53
2022/07/04 01:45:38;;;;;;;2.38;1.40;;;16.70;99.90;;;;;;5134868;27;20168;-55
2022/07/04 01:48:06;;;;;;;3.78;1.52;;;16.70;99.90;;;;;;5134914;27;20591;-55
2022/07/04 01:50:31;;;;;;;4.75;1.48;;;16.80;99.90;;;;;;5134329;27;20576;-55
2022/07/04 01:52:57;;;;;;;5.72;1.73;;;16.80;99.90;;;;;;5134896;27;20254;-55
2022/07/04 01:55:22;;;;;;;5.82;2.10;;;16.70;99.90;;;;;;5134869;27;20644;-55
2022/07/04 01:57:48;;;;;;;3.78;1.48;;;16.70;99.90;;;;;;5134580;27;20192;-55
2022/07/04 02:02:58;;;;;;;4.07;2.10;;;16.60;99.90;;;;;;5134969;27;20167;-55
2022/07/04 02:05:24;;;;;;;6.10;1.80;;;16.60;99.90;;;;;;5134995;27;20521;-55
2022/07/04 02:07:50;;;;;;;4.10;1.77;;;16.60;99.90;;;;;;5134560;27;20251;-55
2022/07/04 02:10:16;;;;;;;5.32;1.60;;;16.50;99.90;;;;;;5134338;27;20187;-55
2022/07/04 02:15:36;;;;;;;3.10;1.48;;;16.60;99.90;;;;;;5134591;27;20636;-54
2022/07/04 02:18:06;;;;;;;4.20;1.77;;;16.60;99.90;;;;;;5134450;27;20179;-55
2022/07/04 02:20:33;;;;;;;7.78;1.90;;;16.40;99.90;;;;;;5134351;27;20178;-54
2022/07/04 02:22:59;;;;;;;10.63;1.80;;;16.50;99.90;;;;;;5134100;27;20168;-54
2022/07/04 02:25:25;;;;;;;5.45;2.00;;;16.40;99.90;;;;;;5134176;27;20211;-55
2022/07/04 02:27:50;;;;;;;4.88;1.95;;;16.60;99.90;;;;;;5133982;27;20203;-55
2022/07/04 02:30:16;;;;;;;4.18;1.83;;;16.40;99.90;;;;;;5134012;27;20175;-55
2022/07/04 02:32:42;;;;;;;4.28;1.35;;;16.30;99.90;;;;;;5133949;27;20171;-54
2022/07/04 02:35:09;;;;;;;6.88;1.77;;;16.40;99.90;;;;;;5134074;27;20215;-54
2022/07/04 02:37:35;;;;;;;7.25;1.95;;;16.40;99.90;;;;;;5133917;27;20163;-55
2022/07/04 02:40:01;;;;;;;7.38;1.90;;;16.40;99.90;;;;;;5133893;27;20172;-55
2022/07/04 02:42:31;;;;;;;3.88;1.90;;;16.30;99.90;;;;;;5134172;27;20562;-56
2022/07/04 02:44:57;;;;;;;4.90;1.75;;;16.10;99.90;;;;;;5115750;27;20651;-55
2022/07/04 02:47:23;;;;;;;2.67;1.52;;;16.10;99.90;;;;;;5133637;27;20196;-55
2022/07/04 02:49:49;;;;;;;3.20;2.00;;;16.10;99.90;;;;;;5133835;27;20156;-55
2022/07/04 02:52:15;;;;;;;3.75;1.90;;;16.10;99.90;;;;;;5115217;27;20177;-54
2022/07/04 02:54:41;;;;;;;7.38;2.13;;;16.00;99.90;;;;;;5133625;27;20225;-54
2022/07/04 02:57:08;;;;;;;2.85;1.90;;;16.00;99.90;;;;;;5133697;27;20176;-54
2022/07/04 02:59:34;;;;;;;7.82;2.33;;;15.90;99.90;;;;;;5133436;27;20164;-54
2022/07/04 03:01:59;;;;;;;2.90;2.20;;;16.00;99.90;;;;;;5133258;27;20212;-53
2022/07/04 03:04:25;;;;;;;5.25;2.00;;;15.90;99.90;;;;;;5133683;27;20203;-54
2022/07/04 03:06:51;;;;;;;3.83;2.20;;;15.90;99.90;;;;;;5133512;27;20189;-53
2022/07/04 03:09:16;;;;;;;3.33;1.98;;;15.90;99.90;;;;;;5133192;27;20214;-54
2022/07/04 03:11:44;;;;;;;5.65;1.90;;;15.90;99.90;;;;;;5133223;27;20174;-54
2022/07/04 03:14:09;;;;;;;4.00;1.98;;;15.90;99.90;;;;;;5133111;27;20621;-53
2022/07/04 03:16:35;;;;;;;4.43;2.22;;;16.00;99.90;;;;;;5133101;27;20178;-54
2022/07/04 03:19:01;;;;;;;9.40;1.90;;;15.90;99.90;;;;;;5133202;27;20160;-54
2022/07/04 03:21:26;;;;;;;3.35;2.30;;;15.90;99.90;;;;;;5133366;27;20628;-54
2022/07/04 03:23:58;;;;;;;2.95;2.30;;;15.90;99.90;;;;;;5133134;27;20660;-53
2022/07/04 03:26:29;;;;;;;4.70;2.50;;;15.90;99.90;;;;;;5133117;27;20696;-53
2022/07/04 03:28:55;;;;;;;2.20;2.00;;;15.90;99.90;;;;;;5133249;27;20203;-54
2022/07/04 03:31:21;;;;;;;4.28;2.45;;;15.90;99.90;;;;;;5133028;27;20239;-54
2022/07/04 03:33:47;;;;;;;3.97;2.25;;;15.80;99.90;;;;;;5132931;27;20595;-54
2022/07/04 03:36:12;;;;;;;5.85;2.30;;;15.70;99.90;;;;;;5132943;27;20164;-54
2022/07/04 03:38:38;;;;;;;3.40;2.20;;;15.70;99.90;;;;;;5132799;27;20218;-54
2022/07/04 03:41:04;;;;;;;2.50;2.10;;;15.70;99.90;;;;;;5132926;27;20152;-54
2022/07/04 03:43:29;;;;;;;6.05;2.22;;;15.80;99.90;;;;;;5132831;28;20271;-54
2022/07/04 03:45:55;;;;;;;4.53;2.60;;;15.80;99.90;;;;;;5133076;28;20164;-54
2022/07/04 03:48:20;;;;;;;7.40;2.40;;;15.80;99.90;;;;;;5132736;28;20203;-54
2022/07/04 03:50:46;;;;;;;7.30;2.75;;;15.70;99.90;;;;;;5132764;28;20293;-54
2022/07/04 03:53:12;;;;;;;6.75;2.72;;;15.80;99.90;;;;;;5132722;28;20179;-54
2022/07/04 03:55:38;;;;;;;7.18;2.17;;;15.90;99.90;;;;;;5132994;28;20175;-54
2022/07/04 03:58:04;;;;;;;8.18;2.78;;;15.80;99.90;;;;;;5132963;28;20168;-53
2022/07/04 04:00:31;;;;;;;12.32;2.60;;;15.70;99.90;;;;;;5132712;28;20160;-53
2022/07/04 04:02:57;;;;;;;8.57;2.35;;;15.80;99.90;;;;;;5132874;28;20694;-54
2022/07/04 04:05:33;;;;;;;8.30;2.50;;;15.70;99.90;;;;;;5132679;28;20165;-53
2022/07/04 04:08:01;;;;;;;15.25;3.03;;;15.70;99.90;;;;;;5132724;28;20207;-54
2022/07/04 04:10:30;;;;;;;8.05;2.63;;;15.70;99.90;;;;;;5132827;28;20621;-53
2022/07/04 04:12:56;;;;;;;10.88;3.60;;;16.60;99.90;;;;;;5132910;28;20168;-53
2022/07/04 04:15:22;;;;;;;12.50;2.50;;;15.80;99.90;;;;;;5135109;27;20160;-53
2022/07/04 04:17:47;;;;;;;14.38;3.15;;;15.90;99.90;;;;;;5136247;27;21141;-53
2022/07/04 04:20:13;;;;;;;9.60;2.78;;;15.90;99.90;;;;;;5136245;27;20220;-53
2022/07/04 04:22:39;;;;;;;6.80;2.50;;;16.00;99.90;;;;;;5136466;27;20616;-53
2022/07/04 04:25:05;;;;;;;5.97;2.63;;;16.00;99.90;;;;;;5136313;27;20344;-53
2022/07/04 04:27:31;;;;;;;5.35;2.20;;;16.10;99.90;;;;;;5136364;27;20199;-53
2022/07/04 04:29:56;;;;;;;7.30;2.53;;;16.10;99.90;;;;;;5136753;27;20179;-54
2022/07/04 04:32:22;;;;;;;6.50;2.45;;;16.20;99.90;;;;;;5136287;27;20195;-54
2022/07/04 04:34:47;;;;;;;9.35;2.35;;;16.30;99.90;;;;;;5136217;27;20285;-54
2022/07/04 04:37:13;;;;;;;10.43;2.38;;;16.30;99.90;;;;;;5136086;27;20293;-54
2022/07/04 04:39:39;;;;;;;9.93;2.78;;;16.60;99.90;;;;;;5136003;27;20167;-53
2022/07/04 04:42:05;;;;;;;11.70;2.20;;;16.90;99.90;;;;;;5136065;27;20164;-54
2022/07/04 04:44:30;;;;;;;6.65;2.30;;;17.20;99.90;;;;;;5135993;27;20168;-54
2022/07/04 04:46:56;;;;;;;7.97;2.53;;;17.30;99.90;;;;;;5136345;27;20168;-54
2022/07/04 04:49:21;;;;;;;6.10;2.70;;;17.40;99.90;;;;;;5135574;27;20254;-53
2022/07/04 04:51:47;;;;;;;4.95;2.85;;;17.40;99.90;;;;;;5135990;27;20180;-56
2022/07/04 04:54:13;;;;;;;10.10;3.22;;;17.40;99.90;;;;;;5135968;27;20172;-56
2022/07/04 04:56:39;;;;;;;7.53;2.88;;;17.50;99.90;;;;;;5135920;27;20164;-56
2022/07/04 04:59:05;;;;;;;9.25;3.58;;;17.70;99.90;;;;;;5135962;27;20189;-55
2022/07/04 05:01:31;;;;;;;11.90;4.13;;;17.80;99.90;;;;;;5135747;27;20263;-55
2022/07/04 05:03:56;;;;;;;15.38;4.53;;;18.00;99.90;;;;;;5136106;27;20164;-56
2022/07/04 05:06:22;;;;;;;10.65;4.88;;;18.20;99.90;;;;;;5135396;27;20172;-56
2022/07/04 05:08:48;;;;;;;17.77;5.28;;;18.20;99.90;;;;;;5117170;27;20858;-55
2022/07/04 05:11:14;;;;;;;15.38;5.50;;;18.30;99.90;;;;;;5135685;27;20508;-54
2022/07/04 05:13:39;;;;;;;22.33;6.22;;;18.40;99.90;;;;;;5135646;27;20168;-55
2022/07/04 05:16:05;;;;;;;20.70;6.63;;;18.50;99.90;;;;;;5135493;27;20509;-55
2022/07/04 05:18:31;;;;;;;15.98;5.88;;;18.40;99.90;;;;;;5117020;27;20225;-56
2022/07/04 05:20:58;;;;;;;13.95;5.57;;;18.40;99.90;;;;;;5135428;27;20192;-55
2022/07/04 05:23:24;;;;;;;17.48;5.60;;;18.50;99.90;;;;;;5135666;27;20217;-56
2022/07/04 05:25:50;;;;;;;19.55;6.70;;;18.50;99.90;;;;;;5133957;27;20614;-55
2022/07/04 05:28:15;;;;;;;11.85;5.18;;;18.50;99.90;;;;;;5135307;27;20196;-54
2022/07/04 05:30:42;;;;;;;9.80;4.53;;;18.50;99.90;;;;;;5135444;27;20199;-55
2022/07/04 05:33:07;;;;;;;10.70;4.47;;;18.50;99.90;;;;;;5135363;27;20524;-54
2022/07/04 05:35:33;;;;;;;9.75;3.50;;;18.60;99.90;;;;;;5135136;27;20175;-55
2022/07/04 05:37:59;;;;;;;6.63;2.92;;;18.70;99.90;;;;;;5134951;27;20624;-54
2022/07/04 05:40:24;;;;;;;7.05;2.45;;;18.70;99.90;;;;;;5135181;27;20625;-55
2022/07/04 05:42:50;;;;;;;3.38;2.22;;;18.60;99.90;;;;;;5134890;27;20240;-55
2022/07/04 05:45:16;;;;;;;10.18;2.88;;;18.70;99.90;;;;;;5134761;27;20247;-55
2022/07/04 05:47:41;;;;;;;10.95;2.50;;;18.60;99.90;;;;;;5134577;27;20217;-54
2022/07/04 05:50:07;;;;;;;6.35;2.08;;;18.70;99.90;;;;;;5134695;27;20538;-55
2022/07/04 05:52:33;;;;;;;8.75;2.13;;;18.50;99.90;;;;;;5134625;27;20168;-54
2022/07/04 05:54:59;;;;;;;12.57;2.53;;;16.30;99.90;;;;;;5134568;27;20164;-54
2022/07/04 05:57:24;;;;;;;13.10;2.38;;;18.70;99.90;;;;;;5135034;27;20160;-54
2022/07/04 05:59:50;;;;;;;6.20;2.28;;;18.60;99.90;;;;;;5134551;27;20625;-54
2022/07/04 06:02:15;;;;;;;5.30;2.00;;;18.60;99.90;;;;;;5134474;27;20164;-55
2022/07/04 06:04:43;;;;;;;16.88;2.65;;;18.70;99.90;;;;;;5134451;27;20168;-55
2022/07/04 06:07:09;;;;;;;11.40;2.60;;;18.60;99.90;;;;;;5134559;27;20168;-54
2022/07/04 06:09:35;;;;;;;8.27;2.25;;;18.60;99.90;;;;;;5134331;27;20243;-54
2022/07/04 06:12:00;;;;;;;8.70;2.58;;;18.70;99.90;;;;;;5134240;27;20229;-55
2022/07/04 06:14:26;;;;;;;10.80;2.30;;;19.00;99.90;;;;;;5134558;27;20256;-55
2022/07/04 06:16:51;;;;;;;5.43;1.85;;;19.00;99.90;;;;;;5134223;27;20164;-56
2022/07/04 06:19:17;;;;;;;7.28;2.03;;;19.10;99.90;;;;;;5134142;27;20203;-56
2022/07/04 06:21:42;;;;;;;6.65;2.00;;;19.00;99.90;;;;;;5134189;27;20163;-56
2022/07/04 06:24:08;;;;;;;8.38;2.72;;;18.90;99.90;;;;;;5134288;27;20629;-56
2022/07/04 06:26:34;;;;;;;4.00;2.38;;;19.10;99.90;;;;;;5133847;27;20683;-56
2022/07/04 06:28:59;;;;;;;6.85;2.35;;;19.10;99.90;;;;;;5133947;27;20220;-56
2022/07/04 06:31:25;;;;;;;6.07;2.45;;;19.20;99.90;;;;;;5115788;27;20210;-56
2022/07/04 06:36:34;;;;;;;6.88;2.15;;;19.40;99.90;;;;;;5133812;27;20168;-57
2022/07/04 06:39:00;;;;;;;3.05;2.00;;;19.50;99.90;;;;;;5133403;27;20168;-56
2022/07/04 06:41:26;;;;;;;6.95;2.10;;;19.70;99.90;;;;;;5134268;27;20192;-56
2022/07/04 06:43:51;;;;;;;5.03;2.05;;;19.60;99.90;;;;;;5133681;27;20242;-56
2022/07/04 06:46:17;;;;;;;8.02;2.05;;;19.60;99.90;;;;;;5133779;27;20622;-55
2022/07/04 06:48:43;;;;;;;4.35;1.80;;;19.60;99.90;;;;;;5133383;27;20276;-56
2022/07/04 06:51:08;;;;;;;5.65;1.80;;;19.80;99.90;;;;;;5133654;27;20160;-56
2022/07/04 06:53:34;;;;;;;4.18;1.88;;;19.70;99.90;;;;;;5133569;27;20228;-55
2022/07/04 06:55:59;;;;;;;3.55;1.90;;;19.60;99.90;;;;;;5133553;27;20167;-55
2022/07/04 06:58:25;;;;;;;3.28;1.92;;;19.70;99.90;;;;;;5133845;27;20315;-55
2022/07/04 07:00:50;;;;;;;4.00;1.67;;;19.80;99.90;;;;;;5133471;27;20190;-56
2022/07/04 07:03:16;;;;;;;2.58;1.65;;;19.70;99.90;;;;;;5133347;27;20250;-55
2022/07/04 07:05:42;;;;;;;5.38;1.70;;;19.70;99.90;;;;;;5133297;27;20164;-56
2022/07/04 07:08:08;;;;;;;5.03;1.45;;;19.90;99.90;;;;;;5133238;27;20191;-56
2022/07/04 07:10:35;;;;;;;2.55;1.60;;;20.10;99.90;;;;;;5133280;27;20164;-55
2022/07/04 07:13:01;;;;;;;3.80;1.85;;;20.20;99.90;;;;;;5133457;27;20179;-55
2022/07/04 07:15:28;;;;;;;2.97;1.33;;;20.40;99.90;;;;;;5133540;27;20284;-56
2022/07/04 07:17:53;;;;;;;4.28;1.58;;;20.40;99.90;;;;;;5133474;27;20204;-56
2022/07/04 07:20:19;;;;;;;6.57;1.73;;;20.60;99.90;;;;;;5133077;27;20209;-56
2022/07/04 07:22:45;;;;;;;6.72;1.60;;;20.90;99.90;;;;;;5132935;27;20163;-56
2022/07/04 07:25:11;;;;;;;3.42;1.65;;;21.00;99.90;;;;;;5132916;27;20301;-55
2022/07/04 07:27:38;;;;;;;5.90;1.40;;;21.00;99.90;;;;;;5132898;27;20300;-55
2022/07/04 07:30:05;;;;;;;3.83;1.20;;;20.90;99.90;;;;;;5133029;27;20156;-55
2022/07/04 07:32:31;;;;;;;2.97;1.45;;;20.70;99.90;;;;;;5132855;27;20197;-55
2022/07/04 07:34:56;;;;;;;4.50;1.13;;;20.70;99.90;;;;;;5133137;27;20172;-55
2022/07/04 07:37:22;;;;;;;3.08;1.08;;;20.80;99.90;;;;;;5132875;27;20216;-55
2022/07/04 07:39:49;;;;;;;2.63;1.25;;;20.90;99.90;;;;;;5132848;27;20618;-55
2022/07/04 07:42:15;;;;;;;4.10;1.20;;;20.80;99.90;;;;;;5133121;27;20175;-55
2022/07/04 07:44:41;;;;;;;2.08;1.65;;;21.10;99.90;;;;;;5133073;28;20195;-55
2022/07/04 07:47:07;;;;;;;3.10;0.98;;;21.30;99.90;;;;;;5132729;28;20671;-55
2022/07/04 07:49:32;;;;;;;2.42;1.00;;;21.40;99.90;;;;;;5133972;27;20216;-55
2022/07/04 07:51:58;;;;;;;2.08;1.20;;;21.50;99.90;;;;;;5137337;27;20160;-55
2022/07/04 07:54:23;;;;;;;5.13;1.10;;;21.20;99.90;;;;;;5137318;27;20637;-54
2022/07/04 07:56:50;;;;;;;1.27;1.00;;;21.30;99.90;;;;;;5136984;27;20250;-55
2022/07/04 07:59:15;;;;;;;2.58;1.17;;;21.40;99.90;;;;;;5136808;27;20159;-55
2022/07/04 08:01:41;;;;;;;3.45;1.40;;;21.40;99.90;;;;;;5136985;27;20160;-55
2022/07/04 08:06:50;;;;;;;2.00;1.17;;;21.80;99.90;;;;;;5136845;27;20227;-55
2022/07/04 08:09:16;;;;;;;1.85;1.25;;;21.70;99.90;;;;;;5136891;27;20673;-55
2022/07/04 08:11:42;;;;;;;7.15;1.58;;;22.00;99.90;;;;;;5136700;27;20187;-55
2022/07/04 08:14:08;;;;;;;2.70;1.20;;;22.00;99.90;;;;;;5136880;27;20224;-55
2022/07/04 08:16:34;;;;;;;2.47;0.73;;;22.00;99.90;;;;;;5136488;27;20625;-55
2022/07/04 08:19:01;;;;;;;2.90;1.20;;;22.00;99.90;;;;;;5136478;27;20164;-55
2022/07/04 08:21:27;;;;;;;2.55;0.85;;;22.20;99.90;;;;;;5137074;27;20178;-55
2022/07/04 08:23:52;;;;;;;0.80;0.80;;;22.10;99.90;;;;;;5136767;27;20239;-55
2022/07/04 08:26:18;;;;;;;4.55;1.27;;;22.30;99.90;;;;;;5136098;27;20220;-56
2022/07/04 08:28:44;;;;;;;5.50;1.58;;;22.40;99.90;;;;;;5135977;27;20740;-55
2022/07/04 08:31:09;;;;;;;1.02;0.85;;;22.40;99.90;;;;;;5136576;27;20701;-56
2022/07/04 08:33:35;;;;;;;3.05;1.27;;;22.50;99.90;;;;;;5136189;27;20160;-56
2022/07/04 08:36:00;;;;;;;3.33;1.10;;;22.60;99.90;;;;;;5136218;27;20167;-55
2022/07/04 08:38:26;;;;;;;3.03;1.13;;;22.80;99.90;;;;;;5136213;27;20175;-55
2022/07/04 08:40:56;;;;;;;5.20;1.38;;;22.70;99.90;;;;;;5136122;27;20201;-55
2022/07/04 08:43:23;;;;;;;1.85;1.00;;;22.70;99.90;;;;;;5136117;27;20168;-56
2022/07/04 08:45:51;;;;;;;1.30;1.20;;;22.60;99.90;;;;;;5135978;27;20190;-56
2022/07/04 08:48:21;;;;;;;3.13;1.10;;;22.80;99.90;;;;;;5135922;27;20566;-56
2022/07/04 08:50:56;;;;;;;2.58;1.13;;;22.80;99.90;;;;;;5135903;27;20198;-56
2022/07/04 08:53:24;;;;;;;1.25;1.08;;;23.00;99.90;;;;;;5136115;27;20168;-56
2022/07/04 08:58:37;;;;;;;3.55;1.25;;;23.00;99.90;;;;;;5136121;27;20738;-56
2022/07/04 09:01:11;;;;;;;4.07;1.40;;;23.10;99.90;;;;;;5135231;27;20156;-56
2022/07/04 09:03:36;;;;;;;3.45;1.05;;;23.40;99.90;;;;;;5135916;27;20164;-56
2022/07/04 09:06:02;;;;;;;1.85;1.20;;;23.40;99.90;;;;;;5135694;27;20176;-56
2022/07/04 09:08:28;;;;;;;3.45;1.10;;;23.60;99.90;;;;;;5135532;27;20202;-55
2022/07/04 09:10:54;;;;;;;3.70;1.13;;;23.50;99.90;;;;;;5135897;27;20519;-56
2022/07/04 09:13:20;;;;;;;4.70;1.35;;;23.40;99.90;;;;;;5135196;27;20171;-57
2022/07/04 09:15:49;;;;;;;3.47;1.42;;;23.40;99.90;;;;;;5135232;27;20156;-56
2022/07/04 09:18:25;;;;;;;2.25;1.27;;;23.20;99.90;;;;;;5135419;27;20176;-57
2022/07/04 09:20:53;;;;;;;1.98;1.30;;;23.30;99.90;;;;;;5135618;27;20163;-56
2022/07/04 09:23:23;;;;;;;4.22;1.23;;;23.40;99.90;;;;;;5135275;27;20166;-56
2022/07/04 09:26:14;;;;;;;3.33;1.20;;;23.60;99.90;;;;;;5135282;27;20208;-56
2022/07/04 09:28:50;;;;;;;6.35;1.20;;;23.70;99.90;;;;;;5134826;27;20200;-56
2022/07/04 09:31:23;;;;;;;4.60;1.40;;;23.50;99.90;;;;;;5132924;27;20175;-56
2022/07/04 09:33:55;;;;;;;1.60;1.13;;;23.20;99.90;;;;;;5135229;27;20561;-56
2022/07/04 09:36:26;;;;;;;4.20;1.27;;;23.80;99.90;;;;;;5135068;27;20235;-56
2022/07/04 09:39:15;;;;;;;2.15;1.00;;;23.90;99.90;;;;;;5135017;27;20684;-56
2022/07/04 09:42:02;;;;;;;5.28;1.33;;;23.60;99.90;;;;;;5134713;27;20758;-56
2022/07/04 09:44:32;;;;;;;2.55;1.25;;;23.90;99.90;;;;;;5135131;27;20202;-56
2022/07/04 09:46:57;;;;;;;2.20;1.20;;;23.80;99.90;;;;;;5135179;27;20221;-58
2022/07/04 09:49:23;;;;;;;2.33;1.30;;;23.60;99.90;;;;;;5135212;27;20249;-56
2022/07/04 09:51:51;;;;;;;2.45;1.60;;;23.70;99.90;;;;;;5134704;27;20172;-56
2022/07/04 09:54:22;;;;;;;1.65;1.08;;;24.00;99.90;;;;;;5134523;27;20176;-55
2022/07/04 09:56:52;;;;;;;4.05;1.30;;;24.50;99.90;;;;;;5134592;27;20644;-56
2022/07/04 09:59:19;;;;;;;2.28;1.52;;;24.60;99.90;;;;;;5134436;27;20176;-56
2022/07/04 10:01:46;;;;;;;5.28;1.25;;;24.40;99.90;;;;;;5134434;27;20644;-55
2022/07/04 10:04:13;;;;;;;4.60;1.20;;;24.30;99.90;;;;;;5134325;27;20168;-56
2022/07/04 10:06:40;;;;;;;4.38;1.10;;;24.10;99.90;;;;;;5133547;27;20217;-55
2022/07/04 10:09:16;;;;;;;8.95;1.40;;;24.10;99.90;;;;;;5133554;27;20208;-56
2022/07/04 10:11:43;;;;;;;2.40;1.15;;;24.40;99.90;;;;;;5133732;27;20166;-55
2022/07/04 10:14:11;;;;;;;3.05;1.30;;;24.70;99.90;;;;;;5133968;27;20190;-55
2022/07/04 10:16:38;;;;;;;2.60;1.17;;;24.30;99.90;;;;;;5133848;27;20156;-55
2022/07/04 10:19:05;;;;;;;4.90;1.30;;;24.40;99.90;;;;;;5133711;27;20187;-56
2022/07/04 10:21:31;;;;;;;5.95;1.13;;;24.40;99.90;;;;;;5134237;27;20168;-55
2022/07/04 10:23:58;;;;;;;4.35;1.63;;;24.50;99.90;;;;;;5134382;27;20673;-55
2022/07/04 10:26:24;;;;;;;4.95;1.58;;;24.70;99.90;;;;;;5134130;27;20310;-56
2022/07/04 10:28:52;;;;;;;2.05;1.10;;;24.90;99.90;;;;;;5133775;27;20195;-56
2022/07/04 10:31:19;;;;;;;3.50;1.33;;;25.00;99.90;;;;;;5133840;27;20179;-56
2022/07/04 10:33:45;;;;;;;4.07;1.40;;;25.50;99.90;;;;;;5133776;27;20170;-55
2022/07/04 10:36:20;;;;;;;2.22;1.35;;;25.40;99.90;;;;;;5133789;27;20178;-56
2022/07/04 10:38:55;;;;;;;3.60;1.40;;;25.50;99.90;;;;;;5133827;27;20164;-56
2022/07/04 10:41:23;;;;;;;3.15;1.30;;;25.60;97.60;;;;;;5133780;27;20192;-55
2022/07/04 10:44:13;;;;;;;4.45;1.52;;;25.40;97.50;;;;;;5133929;27;20175;-55
2022/07/04 10:46:51;;;;;;;3.60;1.13;;;26.00;97.90;;;;;;5133696;27;20160;-55
2022/07/04 10:49:21;;;;;;;3.33;1.50;;;25.70;97.50;;;;;;5133480;27;20300;-56
2022/07/04 10:52:12;;;;;;;3.03;1.17;;;26.10;98.00;;;;;;5133593;27;20648;-55
2022/07/04 10:54:40;;;;;;;2.53;1.48;;;26.30;98.20;;;;;;5133499;27;20171;-55
2022/07/04 10:57:21;;;;;;;1.80;1.20;;;26.20;99.70;;;;;;5133546;27;20632;-56
2022/07/04 10:59:53;;;;;;;2.97;1.35;;;25.60;95.60;;;;;;5133360;27;20655;-55
2022/07/04 11:02:28;;;;;;;2.63;1.20;;;25.90;96.00;;;;;;5115255;27;20617;-55
2022/07/04 11:05:07;;;;;;;3.15;1.10;;;25.80;93.70;;;;;;5133508;27;20175;-56
2022/07/04 11:07:36;;;;;;;3.90;1.20;;;26.10;94.20;;;;;;5132872;27;20191;-56
2022/07/04 11:10:21;;;;;;;2.70;1.30;;;26.30;94.00;;;;;;5133436;27;20224;-55
2022/07/04 11:12:59;;;;;;;3.72;1.30;;;26.40;95.60;;;;;;5133321;27;20159;-56
2022/07/04 11:15:24;;;;;;;3.05;1.23;;;26.50;96.00;;;;;;5133579;27;20192;-55
2022/07/04 11:17:51;;;;;;;3.15;1.45;;;26.30;96.40;;;;;;5133121;27;20172;-55
2022/07/04 11:20:20;;;;;;;1.85;1.30;;;26.30;93.80;;;;;;5133377;27;20246;-56
2022/07/04 11:22:46;;;;;;;3.97;1.40;;;26.50;95.00;;;;;;5133142;27;20167;-56
2022/07/04 11:25:11;;;;;;;3.78;1.38;;;26.70;95.40;;;;;;5132779;27;20211;-56
2022/07/04 11:27:38;;;;;;;3.65;1.10;;;27.10;96.70;;;;;;5132947;27;20213;-56
2022/07/04 11:30:04;;;;;;;3.88;1.40;;;26.50;92.60;;;;;;5132931;27;20592;-56
2022/07/04 11:32:32;;;;;;;7.15;1.33;;;26.70;92.10;;;;;;5132819;27;20195;-56
2022/07/04 11:34:57;;;;;;;2.85;1.13;;;26.80;92.00;;;;;;5133237;27;20171;-56
2022/07/04 11:37:23;;;;;;;1.75;1.10;;;26.50;91.20;;;;;;5133185;27;20208;-56
2022/07/04 11:45:02;;;;;;;3.85;1.00;;;26.80;91.70;;;;;;5132907;27;20159;-55
2022/07/04 11:45:51;;;;;;;4.22;1.10;;;26.50;91.90;;;;;;5133206;28;20251;-56
2022/07/04 11:48:23;;;;;;;4.20;1.40;;;26.50;92.60;;;;;;5132742;28;20206;-56
2022/07/04 11:50:48;;;;;;;2.67;1.10;;;26.80;91.50;;;;;;5132992;28;20167;-56
2022/07/04 11:53:14;;;;;;;3.97;1.30;;;27.00;90.40;;;;;;5132769;28;20538;-57
2022/07/04 11:55:52;;;;;;;3.85;1.67;;;27.40;90.30;;;;;;5132662;28;20160;-56
2022/07/04 11:58:18;;;;;;;4.43;1.40;;;27.60;92.00;;;;;;5132564;28;20163;-56
2022/07/04 12:00:43;;;;;;;4.55;1.48;;;27.20;91.90;;;;;;5132880;28;20228;-56
2022/07/04 12:03:10;;;;;;;4.75;1.20;;;28.00;91.70;;;;;;5132634;28;20212;-56
2022/07/04 12:05:36;;;;;;;5.55;1.50;;;28.00;91.30;;;;;;5132794;28;20167;-56
2022/07/04 12:08:04;;;;;;;4.43;1.40;;;27.30;88.20;;;;;;5132410;28;20624;-56
2022/07/04 12:10:30;;;;;;;2.35;0.88;;;27.10;90.20;;;;;;5132514;28;20254;-56
2022/07/04 12:12:58;;;;;;;5.40;1.20;;;27.40;87.20;;;;;;5132890;28;20596;-56
2022/07/04 12:15:35;;;;;;;3.55;1.15;;;27.50;86.00;;;;;;5133101;28;20520;-56
2022/07/04 12:18:01;;;;;;;2.30;1.10;;;27.20;85.60;;;;;;5132428;28;20174;-56
2022/07/04 12:20:26;;;;;;;1.20;1.10;;;26.70;86.90;;;;;;5132753;28;20197;-57
2022/07/04 12:22:53;;;;;;;3.80;1.10;;;27.20;87.20;;;;;;5132753;28;20199;-55
2022/07/04 12:25:37;;;;;;;5.60;1.70;;;26.80;88.30;;;;;;5132415;28;20260;-56
2022/07/04 12:28:05;;;;;;;3.75;1.33;;;26.90;89.70;;;;;;5132378;28;20199;-56
2022/07/04 12:30:33;;;;;;;3.00;1.20;;;27.10;87.50;;;;;;5132333;28;20163;-55
2022/07/04 12:33:04;;;;;;;2.05;1.00;;;27.30;86.40;;;;;;5132325;28;20159;-56
2022/07/04 12:35:37;;;;;;;3.47;1.08;;;27.70;86.30;;;;;;5133564;27;20523;-56
2022/07/04 12:38:05;;;;;;;3.40;1.48;;;27.80;83.60;;;;;;5136086;27;20164;-55
2022/07/04 12:40:31;;;;;;;2.70;1.20;;;28.00;82.00;;;;;;5136393;27;20167;-55
2022/07/04 12:42:58;;;;;;;5.07;1.48;;;27.80;84.00;;;;;;5136389;27;20163;-56
2022/07/04 12:45:26;;;;;;;1.83;1.25;;;28.80;84.50;;;;;;5136253;27;20164;-56
2022/07/04 12:47:53;;;;;;;3.63;1.42;;;27.50;85.20;;;;;;5135886;27;20278;-55
2022/07/04 12:50:27;;;;;;;3.53;1.25;;;27.60;84.60;;;;;;5136208;27;20172;-56
2022/07/04 12:52:52;;;;;;;2.63;1.20;;;27.70;83.20;;;;;;5135970;27;20166;-55
2022/07/04 12:55:18;;;;;;;3.65;1.20;;;28.10;81.50;;;;;;5135813;27;20254;-56
2022/07/04 12:57:43;;;;;;;4.70;1.33;;;27.60;81.20;;;;;;5135703;27;20181;-55
2022/07/04 13:00:10;;;;;;;2.20;1.20;;;27.40;84.80;;;;;;5135836;27;20213;-55
2022/07/04 13:02:35;;;;;;;1.98;1.35;;;26.90;86.50;;;;;;5135769;27;20164;-56